createdAt,value
2022-10-12T00:00:01.851Z,14.32
2022-10-12T00:05:14.051Z,14.32
2022-10-12T00:10:15.793Z,13.98
2022-10-12T00:15:17.554Z,14.23
2022-10-12T00:20:19.388Z,14.43
2022-10-12T00:25:22.384Z,14.27
2022-10-12T00:30:24.080Z,13.63
2022-10-12T00:35:28.870Z,14.32
2022-10-12T00:40:30.800Z,13.60
2022-10-12T00:45:32.601Z,13.68
2022-10-12T00:50:36.051Z,13.45
2022-10-12T00:55:45.345Z,14.65
2022-10-12T01:00:47.490Z,14.45
2022-10-12T01:05:49.390Z,15.52
2022-10-12T01:10:50.966Z,14.13
2022-10-12T01:16:18.771Z,15.07
2022-10-12T01:21:22.585Z,15.07
2022-10-12T01:27:05.670Z,15.93
2022-10-12T01:32:16.151Z,14.43
2022-10-12T01:37:38.317Z,14.88
2022-10-12T01:42:43.198Z,14.82
2022-10-12T01:47:52.744Z,13.85
2022-10-12T01:52:57.202Z,14.40
2022-10-12T01:58:23.149Z,14.63
2022-10-12T02:03:38.797Z,15.30
2022-10-12T02:08:56.735Z,15.60
2022-10-12T02:14:07.182Z,14.95
2022-10-12T02:19:14.230Z,15.02
2022-10-12T02:24:18.918Z,14.73
2022-10-12T02:29:27.419Z,14.98
2022-10-12T02:39:54.606Z,16.42
2022-10-12T02:45:00.933Z,15.13
2022-10-12T02:50:03.758Z,15.95
2022-10-12T02:55:06.145Z,15.18
2022-10-12T03:00:08.767Z,16.13
2022-10-12T03:05:10.356Z,15.32
2022-10-12T03:10:13.446Z,15.45
2022-10-12T03:15:15.310Z,16.58
2022-10-12T03:20:16.960Z,15.45
2022-10-12T03:25:18.787Z,16.23
2022-10-12T03:30:20.606Z,15.65
2022-10-12T03:35:22.175Z,15.27
2022-10-12T03:40:23.913Z,16.05
2022-10-12T03:45:25.596Z,16.67
2022-10-12T03:50:27.266Z,14.25
2022-10-12T03:55:29.279Z,16.05
2022-10-12T04:00:31.095Z,15.65
2022-10-12T04:05:32.954Z,15.63
2022-10-12T04:10:34.793Z,15.45
2022-10-12T04:15:36.737Z,15.57
2022-10-12T04:20:38.441Z,15.20
2022-10-12T04:25:40.181Z,15.63
2022-10-12T04:30:41.784Z,15.68
2022-10-12T04:35:43.323Z,15.73
2022-10-12T04:40:49.153Z,15.93
2022-10-12T04:45:58.998Z,16.50
2022-10-12T04:51:00.922Z,16.13
2022-10-12T04:56:04.863Z,16.25
2022-10-12T05:01:07.591Z,16.30
2022-10-12T05:06:09.639Z,16.15
2022-10-12T05:11:11.433Z,15.40
2022-10-12T05:16:13.081Z,15.18
2022-10-12T05:21:14.822Z,15.80
2022-10-12T05:26:16.452Z,14.55
2022-10-12T05:31:18.169Z,15.25
2022-10-12T05:36:19.818Z,15.40
2022-10-12T05:41:21.494Z,15.05
2022-10-12T05:46:23.666Z,15.25
2022-10-12T05:51:28.761Z,14.95
2022-10-12T05:56:31.118Z,14.98
2022-10-12T06:01:33.277Z,14.88
2022-10-12T06:06:35.234Z,14.45
2022-10-12T06:11:38.051Z,15.32
2022-10-12T06:16:41.401Z,14.43
2022-10-12T06:21:43.356Z,13.93
2022-10-12T06:26:45.036Z,14.40
2022-10-12T06:31:51.795Z,14.63
2022-10-12T06:36:56.114Z,13.68
2022-10-12T06:42:00.062Z,14.60
2022-10-12T06:47:03.599Z,14.30
2022-10-12T06:52:06.095Z,14.43
2022-10-12T06:57:07.670Z,14.05
2022-10-12T07:02:12.183Z,13.05
2022-10-12T07:07:13.831Z,13.57
2022-10-12T07:12:15.474Z,13.00
2022-10-12T07:17:17.611Z,12.95
2022-10-12T07:22:19.864Z,13.35
2022-10-12T07:27:21.759Z,12.77
2022-10-12T07:32:24.238Z,12.85
2022-10-12T07:37:25.888Z,13.57
2022-10-12T07:42:29.319Z,14.65
2022-10-12T07:47:31.703Z,13.15
2022-10-12T07:52:33.270Z,12.30
2022-10-12T07:57:34.957Z,12.65
2022-10-12T08:02:37.695Z,12.25
2022-10-12T08:07:39.472Z,12.52
2022-10-12T08:12:41.616Z,11.35
2022-10-12T08:17:43.486Z,12.13
2022-10-12T08:22:45.259Z,13.00
2022-10-12T08:27:47.045Z,12.40
2022-10-12T08:32:48.818Z,12.15
2022-10-12T08:37:50.389Z,11.93
2022-10-12T08:43:14.104Z,11.88
2022-10-12T08:48:26.664Z,11.27
2022-10-12T08:54:02.583Z,10.95
2022-10-12T08:59:04.178Z,11.55
2022-10-12T09:04:26.371Z,11.77
2022-10-12T09:10:02.310Z,10.82
2022-10-12T09:15:10.399Z,10.73
2022-10-12T09:20:27.311Z,10.68
2022-10-12T09:25:30.133Z,10.02
2022-10-12T09:30:38.857Z,10.40
2022-10-12T09:35:42.980Z,10.70
2022-10-12T09:40:45.676Z,10.18
2022-10-12T09:45:48.595Z,9.82
2022-10-12T09:50:59.392Z,10.02
2022-10-12T09:56:06.292Z,9.40
2022-10-12T10:01:16.608Z,9.25
2022-10-12T10:06:25.679Z,9.75
2022-10-12T10:11:32.058Z,9.45
2022-10-12T10:16:33.890Z,8.40
2022-10-12T10:21:38.256Z,8.55
2022-10-12T10:26:58.918Z,9.30
2022-10-12T10:32:12.631Z,9.70
2022-10-12T10:37:24.375Z,8.57
2022-10-12T10:42:32.142Z,8.30
2022-10-12T10:47:42.839Z,8.38
2022-10-12T10:52:55.522Z,7.85
2022-10-12T10:58:02.748Z,7.93
2022-10-12T11:03:13.235Z,7.97
2022-10-12T11:08:26.782Z,7.97
2022-10-12T11:13:40.048Z,8.27
2022-10-12T11:18:49.544Z,7.50
2022-10-12T11:24:16.069Z,7.45
2022-10-12T11:29:19.000Z,7.32
2022-10-12T11:34:24.055Z,8.05
2022-10-12T11:39:40.098Z,8.57
2022-10-12T11:44:44.511Z,7.00
2022-10-12T11:49:58.089Z,8.00
2022-10-12T11:55:32.282Z,6.72
2022-10-12T12:01:07.720Z,7.80
2022-10-12T12:06:34.728Z,6.20
2022-10-12T12:11:36.327Z,6.72
2022-10-12T12:16:43.260Z,6.82
2022-10-12T12:22:18.863Z,6.13
2022-10-12T12:27:46.897Z,5.85
2022-10-12T12:32:57.937Z,5.47
2022-10-12T12:38:24.615Z,5.38
2022-10-12T12:43:29.143Z,5.35
2022-10-12T12:48:51.238Z,4.82
2022-10-12T12:53:59.992Z,5.07
2022-10-12T12:59:39.101Z,5.45
2022-10-12T13:04:44.474Z,5.50
2022-10-12T13:09:56.281Z,5.10
2022-10-12T13:15:00.916Z,5.45
2022-10-12T13:20:18.284Z,4.80
2022-10-12T13:25:35.257Z,4.57
2022-10-12T13:30:45.053Z,4.78
2022-10-12T13:36:02.694Z,5.65
2022-10-12T13:41:08.718Z,5.70
2022-10-12T13:46:34.123Z,6.13
2022-10-12T13:51:35.951Z,6.28
2022-10-12T13:56:39.828Z,6.45
2022-10-12T14:02:25.310Z,5.53
2022-10-12T14:07:34.941Z,6.20
2022-10-12T14:12:37.575Z,5.40
2022-10-12T14:17:44.743Z,5.03
2022-10-12T14:22:48.810Z,5.00
2022-10-12T14:28:02.761Z,4.93
2022-10-12T14:33:16.658Z,5.18
2022-10-12T14:38:44.949Z,4.90
2022-10-12T14:44:09.692Z,4.60
2022-10-12T14:49:18.693Z,4.50
2022-10-12T14:54:21.472Z,4.55
2022-10-12T14:59:23.274Z,4.45
2022-10-12T15:04:25.170Z,4.00
2022-10-12T15:09:26.804Z,4.03
2022-10-12T15:14:28.586Z,3.40
2022-10-12T15:19:31.673Z,3.80
2022-10-12T15:24:33.322Z,3.65
2022-10-12T15:29:35.223Z,4.15
2022-10-12T15:34:36.847Z,3.72
2022-10-12T15:39:38.674Z,3.92
2022-10-12T15:44:41.324Z,3.53
2022-10-12T15:49:42.911Z,3.50
2022-10-12T15:54:48.117Z,3.70
2022-10-12T15:59:52.468Z,3.45
2022-10-12T16:04:54.209Z,3.92
2022-10-12T16:09:55.843Z,4.47
2022-10-12T16:14:58.902Z,3.78
2022-10-12T16:20:00.711Z,3.20
2022-10-12T16:25:05.246Z,4.75
2022-10-12T16:30:09.171Z,4.57
2022-10-12T16:35:12.758Z,3.83
2022-10-12T16:40:15.871Z,3.90
2022-10-12T16:45:17.465Z,4.00
2022-10-12T16:50:21.094Z,3.80
2022-10-12T16:55:22.780Z,4.50
2022-10-12T17:00:24.400Z,4.88
2022-10-12T17:05:26.003Z,4.65
2022-10-12T17:10:27.888Z,4.90
2022-10-12T17:15:29.535Z,4.40
2022-10-12T17:20:31.205Z,5.38
2022-10-12T17:25:33.284Z,6.13
2022-10-12T17:30:35.952Z,7.30
2022-10-12T17:35:40.475Z,8.38
2022-10-12T17:40:42.202Z,8.45
2022-10-12T17:45:43.975Z,9.77
2022-10-12T17:50:45.811Z,10.50
2022-10-12T17:55:48.894Z,12.05
2022-10-12T18:00:50.907Z,12.63
2022-10-12T18:05:55.705Z,12.48
2022-10-12T18:11:01.745Z,14.15
2022-10-12T18:16:11.163Z,15.02
2022-10-12T18:21:14.197Z,16.48
2022-10-12T18:26:21.788Z,17.75
2022-10-12T18:31:25.706Z,16.70
2022-10-12T18:36:28.321Z,18.10
2022-10-12T18:41:30.634Z,18.23
2022-10-12T18:46:34.539Z,18.58
2022-10-12T18:51:39.357Z,19.02
2022-10-12T18:56:41.928Z,19.30
2022-10-12T19:01:44.575Z,18.73
2022-10-12T19:06:46.282Z,19.55
2022-10-12T19:11:47.975Z,20.13
2022-10-12T19:16:51.655Z,20.65
2022-10-12T19:21:54.143Z,21.10
2022-10-12T19:26:56.195Z,22.95
2022-10-12T19:31:57.857Z,22.42
2022-10-12T19:37:04.702Z,20.77
2022-10-12T19:42:09.377Z,20.95
2022-10-12T19:47:11.250Z,22.15
2022-10-12T19:52:13.072Z,22.65
2022-10-12T19:57:14.742Z,21.50
2022-10-12T20:02:16.752Z,21.50
2022-10-12T20:07:18.531Z,21.60
2022-10-12T20:12:20.536Z,24.88
2022-10-12T20:17:22.291Z,24.27
2022-10-12T20:22:25.220Z,27.15
2022-10-12T20:27:28.581Z,27.60
2022-10-12T20:32:30.327Z,20.65
2022-10-12T20:37:33.195Z,21.85
2022-10-12T20:42:34.829Z,20.90
2022-10-12T20:47:36.594Z,20.73
2022-10-12T20:52:38.820Z,21.48
2022-10-12T20:57:40.579Z,21.10
2022-10-12T21:02:42.311Z,21.05
2022-10-12T21:07:44.393Z,21.02
2022-10-12T21:12:45.944Z,22.95
2022-10-12T21:17:47.492Z,23.13
2022-10-12T21:22:49.088Z,22.83
2022-10-12T21:27:50.694Z,21.65
2022-10-12T21:32:52.332Z,22.15
2022-10-12T21:37:53.946Z,22.45
2022-10-12T21:42:55.508Z,22.25
2022-10-12T21:47:58.637Z,22.75
2022-10-12T21:53:20.518Z,22.05
2022-10-12T21:58:22.613Z,22.55
2022-10-12T22:03:24.478Z,22.92
2022-10-12T22:08:26.335Z,23.35
2022-10-12T22:13:29.683Z,21.77
2022-10-12T22:18:31.407Z,21.92
2022-10-12T22:23:34.514Z,23.17
2022-10-12T22:28:38.577Z,25.67
2022-10-12T22:33:40.971Z,23.50
2022-10-12T22:38:43.198Z,22.50
2022-10-12T22:43:45.874Z,24.13
2022-10-12T22:48:49.998Z,23.85
2022-10-12T22:53:51.875Z,22.85
2022-10-12T22:58:58.926Z,21.20
2022-10-12T23:04:01.764Z,21.15
2022-10-12T23:09:04.671Z,19.95
2022-10-12T23:14:06.537Z,22.13
2022-10-12T23:19:09.904Z,21.10
2022-10-12T23:24:11.488Z,20.95
2022-10-12T23:29:13.132Z,22.15
2022-10-12T23:34:16.685Z,23.60
2022-10-12T23:39:19.367Z,22.50
2022-10-12T23:44:21.139Z,22.45
2022-10-12T23:49:23.071Z,22.13
2022-10-12T23:54:28.816Z,21.50
2022-10-12T23:59:30.875Z,23.48
